Du har inga inställningar för hoppväder.nu

Hoppväder.nu

Senast uppdaterat 02:04

UTC-tid

2019-12-06 kl. 01:04


Sol och måne

Solen går upp 8:31 och går ner 14:57 (beräknade cirkatider)
Nästa fullmåne blir om 6 dagar (2019-12-12)

METAR

ESKN (Skavsta)
(14 minuter sedan)
ESKN 060050Z 22010KT 9999 -RA BKN030 06/04 Q0992 RWY 26 WET OR WATER PATCHES 51-100 PCT LESS THAN 1 MM BA GOOD=



ESSB (Bromma)
(14 minuter sedan)
ESSB 060050Z AUTO 21010KT 9000 DZ BKN016/// OVC023/// 06/04 Q0991 REDZ=



ESOE (Örebro)
(14 minuter sedan)
ESOE 060050Z 21014KT 9000 -RA BKN012 06/04 Q0990=



ESSL (Linköping)
(14 minuter sedan)
ESSL 060050Z AUTO 23010KT 200V280 9999 -RA BKN025/// OVC045/// 07/04 Q0993 REDZ=



ESSP (Norrköping)
(14 minuter sedan)
ESSP 060050Z AUTO 22010KT 9999 DZ SCT027/// OVC034/// 07/05 Q0993 REDZ=



TAF

ESKN (Skavsta)
(94 minuter sedan)
ESKN 052330Z 0600/0624 22015KT 9999 -RA BKN025 TEMPO 0600/0606 3500 RA BKN012 TEMPO 0606/0612 3000 RA BKN008=



ESSB (Bromma)
ESSB



ESOE (Örebro)
(94 minuter sedan)
ESOE 052330Z 0600/0609 22015KT 9999 -RA BKN016 TEMPO 0600/0609 2500 RA BKN008=



ESSL (Linköping)
(274 minuter sedan)
ESSL 052030Z 0521/0523 23014G24KT 9999 BKN030=



ESSP (Norrköping)
(454 minuter sedan)
ESSP 051730Z 0518/0522 23018G28KT 9999 BKN030=





Kodnycklar till TAF och METAR






LHP

(Nyköping är område G1b i Södra delen)

Prognos är inte uppdaterad




Spotting

Hur fungerar spotthjälpen och Vindkartan?

Markvind är ca 0 m/s.



Vindkartan

Senast uppdaterad 02:04




All data kommer från LFV.se